createdAt,value
2018-03-04T00:00:25.940Z,50.60
2018-03-04T00:02:53.454Z,55.67
2018-03-04T00:05:21.142Z,51.77
2018-03-04T00:07:48.654Z,52.90
2018-03-04T00:10:16.350Z,53.20
2018-03-04T00:12:43.741Z,50.23
2018-03-04T00:15:11.283Z,54.30
2018-03-04T00:17:38.799Z,55.70
2018-03-04T00:20:06.318Z,51.37
2018-03-04T00:22:40.681Z,53.63
2018-03-04T00:25:08.205Z,46.83
2018-03-04T00:27:35.716Z,51.63
2018-03-04T00:30:03.273Z,53.93
2018-03-04T00:32:30.820Z,51.90
2018-03-04T00:34:58.416Z,53.77
2018-03-04T00:37:25.964Z,50.50
2018-03-04T00:39:53.528Z,51.87
2018-03-04T00:42:21.036Z,51.47
2018-03-04T00:44:48.568Z,50.80
2018-03-04T00:47:16.072Z,55.27
2018-03-04T00:49:44.402Z,51.00
2018-03-04T00:52:11.913Z,50.90
2018-03-04T00:54:40.186Z,54.07
2018-03-04T00:57:07.698Z,50.23
2018-03-04T00:59:35.203Z,51.17
2018-03-04T01:02:02.746Z,52.03
2018-03-04T01:04:30.311Z,51.33
2018-03-04T01:06:57.859Z,49.53
2018-03-04T01:09:25.398Z,53.30
2018-03-04T01:11:52.908Z,49.93
2018-03-04T01:14:20.429Z,53.00
2018-03-04T01:16:47.959Z,52.07
2018-03-04T01:19:15.461Z,52.70
2018-03-04T01:21:42.990Z,52.27
2018-03-04T01:24:10.518Z,53.40
2018-03-04T01:26:38.052Z,56.23
2018-03-04T01:29:05.547Z,55.53
2018-03-04T01:31:33.074Z,54.63
2018-03-04T01:34:01.390Z,52.30
2018-03-04T01:36:29.012Z,52.07
2018-03-04T01:38:56.561Z,54.83
2018-03-04T01:41:24.105Z,52.40
2018-03-04T01:43:52.671Z,51.83
2018-03-04T01:46:20.173Z,51.83
2018-03-04T01:48:47.677Z,56.33
2018-03-04T01:51:15.206Z,53.90
2018-03-04T01:53:42.754Z,55.27
2018-03-04T01:56:10.288Z,56.43
2018-03-04T01:58:37.805Z,52.93
2018-03-04T02:01:05.334Z,53.47
2018-03-04T02:03:32.878Z,51.63
2018-03-04T02:06:00.392Z,54.33
2018-03-04T02:08:27.945Z,53.07
2018-03-04T02:10:55.536Z,58.93
2018-03-04T02:13:23.050Z,53.63
2018-03-04T02:15:50.570Z,51.57
2018-03-04T02:18:18.099Z,55.63
2018-03-04T02:20:45.683Z,51.43
2018-03-04T02:23:13.198Z,55.13
2018-03-04T02:25:41.617Z,54.80
2018-03-04T02:28:09.147Z,56.30
2018-03-04T02:30:37.433Z,54.80
2018-03-04T02:33:04.964Z,53.00
2018-03-04T02:35:32.522Z,52.70
2018-03-04T02:38:00.046Z,50.97
2018-03-04T02:40:27.687Z,52.60
2018-03-04T02:42:55.200Z,52.13
2018-03-04T02:45:22.729Z,53.23
2018-03-04T02:47:50.274Z,56.30
2018-03-04T02:50:17.776Z,56.47
2018-03-04T02:52:45.295Z,55.10
2018-03-04T02:55:12.972Z,55.60
2018-03-04T02:57:41.079Z,52.87
2018-03-04T03:00:08.894Z,53.90
2018-03-04T03:02:37.076Z,51.27
2018-03-04T03:05:04.587Z,53.97
2018-03-04T03:07:32.116Z,54.00
2018-03-04T03:09:59.620Z,53.47
2018-03-04T03:12:27.160Z,53.27
2018-03-04T03:14:54.733Z,52.73
2018-03-04T03:17:22.279Z,51.00
2018-03-04T03:19:49.805Z,50.73
2018-03-04T03:22:17.310Z,50.70
2018-03-04T03:24:44.881Z,51.50
2018-03-04T03:27:12.425Z,52.73
2018-03-04T03:29:39.985Z,54.23
2018-03-04T03:32:07.488Z,56.90
2018-03-04T03:34:35.000Z,52.23
2018-03-04T03:37:02.525Z,52.30
2018-03-04T03:39:30.049Z,54.17
2018-03-04T03:41:57.556Z,54.87
2018-03-04T03:44:25.676Z,53.07
2018-03-04T03:46:53.980Z,53.23
2018-03-04T03:49:21.521Z,49.30
2018-03-04T03:51:49.068Z,48.27
2018-03-04T03:54:16.626Z,54.73
2018-03-04T03:56:44.178Z,52.60
2018-03-04T03:59:11.729Z,49.40
2018-03-04T04:01:39.219Z,49.97
2018-03-04T04:04:06.725Z,50.20
2018-03-04T04:06:34.277Z,52.50
2018-03-04T04:09:01.789Z,51.97
2018-03-04T04:11:29.299Z,54.47
2018-03-04T04:13:56.836Z,49.17
2018-03-04T04:16:25.225Z,50.37
2018-03-04T04:18:52.737Z,49.57
2018-03-04T04:21:20.286Z,51.17
2018-03-04T04:23:47.805Z,50.97
2018-03-04T04:26:15.337Z,52.23
2018-03-04T04:28:42.883Z,53.53
2018-03-04T04:31:10.410Z,53.63
2018-03-04T04:33:37.969Z,51.03
2018-03-04T04:36:05.523Z,54.20
2018-03-04T04:38:33.045Z,52.10
2018-03-04T04:41:00.579Z,51.43
2018-03-04T04:43:28.120Z,48.13
2018-03-04T04:45:55.658Z,47.13
2018-03-04T04:48:23.192Z,50.13
2018-03-04T04:50:51.518Z,52.83
2018-03-04T04:53:19.047Z,52.63
2018-03-04T04:55:46.558Z,51.97
2018-03-04T04:58:14.085Z,51.53
2018-03-04T05:00:41.585Z,52.90
2018-03-04T05:03:09.136Z,50.60
2018-03-04T05:05:36.677Z,52.87
2018-03-04T05:08:04.185Z,50.53
2018-03-04T05:10:32.478Z,50.67
2018-03-04T05:12:59.988Z,50.63
2018-03-04T05:15:27.518Z,55.47
2018-03-04T05:17:55.062Z,52.00
2018-03-04T05:20:22.591Z,49.20
2018-03-04T05:22:50.103Z,50.03
2018-03-04T05:25:17.638Z,50.13
2018-03-04T05:27:45.968Z,49.00
2018-03-04T05:30:13.471Z,51.80
2018-03-04T05:32:41.030Z,55.13
2018-03-04T05:35:08.554Z,54.43
2018-03-04T05:37:36.114Z,55.60
2018-03-04T05:40:03.663Z,54.33
2018-03-04T05:42:31.182Z,52.70
2018-03-04T05:44:59.461Z,52.53
2018-03-04T05:47:26.981Z,55.07
2018-03-04T05:49:54.499Z,49.53
2018-03-04T05:52:22.043Z,52.30
2018-03-04T05:54:49.592Z,49.73
2018-03-04T05:57:17.129Z,51.97
2018-03-04T05:59:44.707Z,52.40
2018-03-04T06:02:12.375Z,49.77
2018-03-04T06:04:39.956Z,51.87
2018-03-04T06:07:07.496Z,50.27
2018-03-04T06:09:35.850Z,52.23
2018-03-04T06:12:03.349Z,52.10
2018-03-04T06:14:31.681Z,52.37
2018-03-04T06:16:59.249Z,47.57
2018-03-04T06:19:26.780Z,47.27
2018-03-04T06:21:54.321Z,49.50
2018-03-04T06:24:21.829Z,54.60
2018-03-04T06:26:49.350Z,51.03
2018-03-04T06:29:16.878Z,49.53
2018-03-04T06:31:44.429Z,51.70
2018-03-04T06:34:11.978Z,51.93
2018-03-04T06:36:39.482Z,49.53
2018-03-04T06:39:07.756Z,47.73
2018-03-04T06:41:35.304Z,50.67
2018-03-04T06:44:03.688Z,48.73
2018-03-04T06:46:31.278Z,54.10
2018-03-04T06:48:58.811Z,52.37
2018-03-04T06:51:26.348Z,52.37
2018-03-04T06:53:53.856Z,48.90
2018-03-04T06:56:21.433Z,53.73
2018-03-04T06:58:48.953Z,50.80
2018-03-04T07:01:16.498Z,53.83
2018-03-04T07:03:44.954Z,51.20
2018-03-04T07:06:12.450Z,53.37
2018-03-04T07:08:39.953Z,51.90
2018-03-04T07:11:07.508Z,50.97
2018-03-04T07:13:35.013Z,49.07
2018-03-04T07:16:03.286Z,51.80
2018-03-04T07:18:30.810Z,52.53
2018-03-04T07:20:58.936Z,51.20
2018-03-04T07:23:27.256Z,50.53
2018-03-04T07:25:54.780Z,48.23
2018-03-04T07:28:22.348Z,52.20
2018-03-04T07:30:49.868Z,50.63
2018-03-04T07:33:17.378Z,50.03
2018-03-04T07:35:44.950Z,52.40
2018-03-04T07:38:12.568Z,48.70
2018-03-04T07:40:40.566Z,48.77
2018-03-04T07:43:08.113Z,50.73
2018-03-04T07:45:43.777Z,47.10
2018-03-04T07:48:11.331Z,47.93
2018-03-04T07:50:39.614Z,47.93
2018-03-04T07:53:08.349Z,46.60
2018-03-04T07:55:38.064Z,45.50
2018-03-04T07:58:05.725Z,47.27
2018-03-04T08:00:44.683Z,48.67
2018-03-04T08:03:14.751Z,47.37
2018-03-04T08:05:43.868Z,51.13
2018-03-04T08:08:12.347Z,47.50
2018-03-04T08:10:41.773Z,45.60
2018-03-04T08:13:09.355Z,49.50
2018-03-04T08:15:37.632Z,46.80
2018-03-04T08:18:05.154Z,47.43
2018-03-04T08:20:32.735Z,45.83
2018-03-04T08:23:00.266Z,44.77
2018-03-04T08:25:33.921Z,46.00
2018-03-04T08:28:13.191Z,42.63
2018-03-04T08:30:40.692Z,43.30
2018-03-04T08:33:08.231Z,46.03
2018-03-04T08:35:35.742Z,43.53
2018-03-04T08:38:03.281Z,45.57
2018-03-04T08:40:30.832Z,42.43
2018-03-04T08:42:58.422Z,41.13
2018-03-04T08:45:25.983Z,41.07
2018-03-04T08:47:54.314Z,41.40
2018-03-04T08:50:21.899Z,41.80
2018-03-04T08:52:49.523Z,44.20
2018-03-04T08:55:17.144Z,41.67
2018-03-04T08:57:44.660Z,40.30
2018-03-04T09:00:12.201Z,39.73
2018-03-04T09:02:39.769Z,46.43
2018-03-04T09:05:07.297Z,40.20
2018-03-04T09:07:35.581Z,41.67
2018-03-04T09:10:03.109Z,42.87
2018-03-04T09:12:30.643Z,41.40
2018-03-04T09:14:58.149Z,41.17
2018-03-04T09:17:25.662Z,40.87
2018-03-04T09:19:53.312Z,40.80
2018-03-04T09:22:20.863Z,38.43
2018-03-04T09:24:48.403Z,40.30
2018-03-04T09:27:19.201Z,38.27
2018-03-04T09:29:46.742Z,40.53
2018-03-04T09:32:14.316Z,37.90
2018-03-04T09:34:41.891Z,37.40
2018-03-04T09:37:09.449Z,37.50
2018-03-04T09:39:37.047Z,37.97
2018-03-04T09:42:04.567Z,35.70
2018-03-04T09:44:32.105Z,40.17
2018-03-04T09:46:59.803Z,38.93
2018-03-04T09:49:27.319Z,40.50
2018-03-04T09:51:54.892Z,38.00
2018-03-04T09:54:22.436Z,38.53
2018-03-04T09:56:50.009Z,37.97
2018-03-04T09:59:18.268Z,39.30
2018-03-04T10:01:45.803Z,37.03
2018-03-04T10:04:14.084Z,39.30
2018-03-04T10:06:41.608Z,38.33
2018-03-04T10:09:09.147Z,38.27
2018-03-04T10:11:36.654Z,36.63
2018-03-04T10:14:04.183Z,34.90
2018-03-04T10:16:31.709Z,34.73
2018-03-04T10:18:59.229Z,35.40
2018-03-04T10:21:26.788Z,33.93
2018-03-04T10:23:54.368Z,34.43
2018-03-04T10:26:22.023Z,32.37
2018-03-04T10:28:49.580Z,32.10
2018-03-04T10:31:17.138Z,30.07
2018-03-04T10:33:45.482Z,30.23
2018-03-04T10:36:13.796Z,32.53
2018-03-04T10:38:41.320Z,30.13
2018-03-04T10:41:08.954Z,30.50
2018-03-04T10:43:36.538Z,29.30
2018-03-04T10:46:04.044Z,30.60
2018-03-04T10:48:32.358Z,28.20
2018-03-04T10:50:59.922Z,28.10
2018-03-04T10:53:27.465Z,29.10
2018-03-04T10:55:54.976Z,26.43
2018-03-04T10:58:22.504Z,25.30
2018-03-04T11:00:55.612Z,25.87
2018-03-04T11:03:23.124Z,24.53
2018-03-04T11:05:50.640Z,24.67
2018-03-04T11:08:18.161Z,24.20
2018-03-04T11:10:45.698Z,22.77
2018-03-04T11:13:14.032Z,22.93
2018-03-04T11:15:41.636Z,22.97
2018-03-04T11:18:09.204Z,23.03
2018-03-04T11:20:37.501Z,22.93
2018-03-04T11:23:05.035Z,22.70
2018-03-04T11:25:32.573Z,23.03
2018-03-04T11:28:00.921Z,21.33
2018-03-04T11:30:28.428Z,21.53
2018-03-04T11:32:55.958Z,21.80
2018-03-04T11:35:23.482Z,22.37
2018-03-04T11:37:51.053Z,21.23
2018-03-04T11:40:18.624Z,21.60
2018-03-04T11:42:46.173Z,22.17
2018-03-04T11:45:13.702Z,21.20
2018-03-04T11:47:41.980Z,19.13
2018-03-04T11:50:09.532Z,18.70
2018-03-04T11:52:37.056Z,17.67
2018-03-04T11:55:05.337Z,17.30
2018-03-04T11:57:32.875Z,16.93
2018-03-04T12:00:00.387Z,16.37
2018-03-04T12:02:27.918Z,17.30
2018-03-04T12:04:55.441Z,18.37
2018-03-04T12:07:22.952Z,19.60
2018-03-04T12:09:50.514Z,18.43
2018-03-04T12:12:18.041Z,16.83
2018-03-04T12:14:45.568Z,17.87
2018-03-04T12:17:13.842Z,16.33
2018-03-04T12:19:42.133Z,18.27
2018-03-04T12:22:09.637Z,17.67
2018-03-04T12:24:37.138Z,16.90
2018-03-04T12:27:04.684Z,17.03
2018-03-04T12:29:32.222Z,16.57
2018-03-04T12:31:59.764Z,14.93
2018-03-04T12:34:27.291Z,15.20
2018-03-04T12:36:55.610Z,16.07
2018-03-04T12:39:23.901Z,16.37
2018-03-04T12:41:51.428Z,16.23
2018-03-04T12:44:18.963Z,15.17
2018-03-04T12:46:47.260Z,13.27
2018-03-04T12:49:15.671Z,13.97
2018-03-04T12:51:43.198Z,15.23
2018-03-04T12:54:10.798Z,15.47
2018-03-04T12:56:38.319Z,14.60
2018-03-04T12:59:06.010Z,15.47
2018-03-04T13:01:33.546Z,14.43
2018-03-04T13:04:01.067Z,16.30
2018-03-04T13:06:28.592Z,14.87
2018-03-04T13:08:56.312Z,16.20
2018-03-04T13:11:24.592Z,16.77
2018-03-04T13:13:52.150Z,16.43
2018-03-04T13:16:20.501Z,17.77
2018-03-04T13:18:48.033Z,16.63
2018-03-04T13:21:15.614Z,15.30
2018-03-04T13:23:43.921Z,16.60
2018-03-04T13:26:11.438Z,16.57
2018-03-04T13:28:38.992Z,18.07
2018-03-04T13:31:06.518Z,18.43
2018-03-04T13:33:34.787Z,18.57
2018-03-04T13:36:02.328Z,16.77
2018-03-04T13:38:29.865Z,18.23
2018-03-04T13:40:57.390Z,18.43
2018-03-04T13:43:24.934Z,18.27
2018-03-04T13:45:52.460Z,18.43
2018-03-04T13:48:20.010Z,19.03
2018-03-04T13:50:47.528Z,19.33
2018-03-04T13:53:15.042Z,21.03
2018-03-04T13:55:42.564Z,22.13
2018-03-04T13:58:10.070Z,22.93
2018-03-04T14:00:37.584Z,22.30
2018-03-04T14:03:05.129Z,23.50
2018-03-04T14:05:32.689Z,23.40
2018-03-04T14:08:00.298Z,24.60
2018-03-04T14:10:27.801Z,24.93
2018-03-04T14:12:55.412Z,24.13
2018-03-04T14:15:22.973Z,25.50
2018-03-04T14:17:50.758Z,25.70
2018-03-04T14:20:18.348Z,25.00
2018-03-04T14:22:45.862Z,26.03
2018-03-04T14:25:13.421Z,25.57
2018-03-04T14:27:40.932Z,26.27
2018-03-04T14:30:08.495Z,24.13
2018-03-04T14:32:36.034Z,27.70
2018-03-04T14:35:03.574Z,26.63
2018-03-04T14:37:31.113Z,26.57
2018-03-04T14:39:58.636Z,27.03
2018-03-04T14:42:26.284Z,28.13
2018-03-04T14:44:53.818Z,30.07
2018-03-04T14:47:21.375Z,29.50
2018-03-04T14:49:48.896Z,27.27
2018-03-04T14:52:16.421Z,28.07
2018-03-04T14:54:43.957Z,26.97
2018-03-04T14:57:11.588Z,28.20
2018-03-04T14:59:39.136Z,28.10
2018-03-04T15:02:06.643Z,27.57
2018-03-04T15:04:34.325Z,28.60
2018-03-04T15:07:01.865Z,31.43
2018-03-04T15:09:29.370Z,27.57
2018-03-04T15:11:56.917Z,30.50
2018-03-04T15:14:25.207Z,28.73
2018-03-04T15:16:52.764Z,28.43
2018-03-04T15:19:21.078Z,25.50
2018-03-04T15:21:48.614Z,25.20
2018-03-04T15:24:16.248Z,26.13
2018-03-04T15:26:43.805Z,25.57
2018-03-04T15:29:11.321Z,25.33
2018-03-04T15:31:38.863Z,24.90
2018-03-04T15:34:06.378Z,25.20
2018-03-04T15:36:33.891Z,25.87
2018-03-04T15:39:01.450Z,25.57
2018-03-04T15:41:29.051Z,25.20
2018-03-04T15:43:56.757Z,26.03
2018-03-04T15:46:24.285Z,25.87
2018-03-04T15:48:51.814Z,26.47
2018-03-04T15:51:19.382Z,26.10
2018-03-04T15:53:46.902Z,24.53
2018-03-04T15:56:14.527Z,25.47
2018-03-04T15:58:42.080Z,24.27
2018-03-04T16:01:09.633Z,24.20
2018-03-04T16:03:37.149Z,24.97
2018-03-04T16:06:04.697Z,25.83
2018-03-04T16:08:32.975Z,24.97
2018-03-04T16:11:00.478Z,25.50
2018-03-04T16:13:28.029Z,25.17
2018-03-04T16:15:55.561Z,26.07
2018-03-04T16:18:23.885Z,27.43
2018-03-04T16:20:51.458Z,25.50
2018-03-04T16:23:18.975Z,26.10
2018-03-04T16:25:46.563Z,27.20
2018-03-04T16:28:14.264Z,27.67
2018-03-04T16:30:41.769Z,26.93
2018-03-04T16:33:09.314Z,27.83
2018-03-04T16:35:36.805Z,26.17
2018-03-04T16:38:04.557Z,27.10
2018-03-04T16:40:32.090Z,27.37
2018-03-04T16:42:59.589Z,26.53
2018-03-04T16:45:27.110Z,29.77
2018-03-04T16:47:54.678Z,28.50
2018-03-04T16:50:24.907Z,28.03
2018-03-04T16:52:53.348Z,29.67
2018-03-04T16:55:20.895Z,28.00
2018-03-04T16:57:48.393Z,27.70
2018-03-04T17:00:16.741Z,26.90
2018-03-04T17:02:44.243Z,27.03
2018-03-04T17:05:12.518Z,25.20
2018-03-04T17:07:40.203Z,27.40
2018-03-04T17:10:07.734Z,27.20
2018-03-04T17:12:35.265Z,26.73
2018-03-04T17:15:02.792Z,26.30
2018-03-04T17:17:30.298Z,28.30
2018-03-04T17:19:57.797Z,28.43
2018-03-04T17:22:25.366Z,27.97
2018-03-04T17:24:52.899Z,28.07
2018-03-04T17:27:21.212Z,28.70
2018-03-04T17:29:48.747Z,25.47
2018-03-04T17:32:17.034Z,25.70
2018-03-04T17:34:44.573Z,25.37
2018-03-04T17:37:12.845Z,24.27
2018-03-04T17:39:40.405Z,25.03
2018-03-04T17:42:08.697Z,25.60
2018-03-04T17:44:36.203Z,25.37
2018-03-04T17:47:03.725Z,24.77
2018-03-04T17:49:32.035Z,22.90
2018-03-04T17:51:59.570Z,23.90
2018-03-04T17:54:27.873Z,23.37
2018-03-04T17:56:56.104Z,24.67
2018-03-04T17:59:23.648Z,23.97
2018-03-04T18:01:51.186Z,24.40
2018-03-04T18:04:18.699Z,24.33
2018-03-04T18:06:47.042Z,24.07
2018-03-04T18:09:14.549Z,23.43
2018-03-04T18:11:42.086Z,23.67
2018-03-04T18:14:10.382Z,22.93
2018-03-04T18:16:38.692Z,22.53
2018-03-04T18:19:06.387Z,19.57
2018-03-04T18:21:33.888Z,21.27
2018-03-04T18:24:01.431Z,21.70
2018-03-04T18:26:29.718Z,21.23
2018-03-04T18:28:57.369Z,21.70
2018-03-04T18:31:25.763Z,22.40
2018-03-04T18:33:54.117Z,19.67
2018-03-04T18:36:21.754Z,18.80
2018-03-04T18:38:49.527Z,18.37
2018-03-04T18:41:17.040Z,18.20
2018-03-04T18:43:45.310Z,16.10
2018-03-04T18:46:13.238Z,15.70
2018-03-04T18:48:40.762Z,14.63
2018-03-04T18:51:08.305Z,14.23
2018-03-04T18:53:35.851Z,14.27
2018-03-04T18:56:04.181Z,14.73
2018-03-04T18:58:31.736Z,15.10
2018-03-04T19:00:59.453Z,14.77
2018-03-04T19:03:27.879Z,15.10
2018-03-04T19:05:55.384Z,14.80
2018-03-04T19:08:23.777Z,14.73
2018-03-04T19:10:52.529Z,15.07
2018-03-04T19:13:20.336Z,15.30
2018-03-04T19:15:48.261Z,16.83
2018-03-04T19:18:16.210Z,15.13
2018-03-04T19:20:43.809Z,15.90
2018-03-04T19:23:11.705Z,20.27
2018-03-04T19:25:39.345Z,16.87
2018-03-04T19:28:07.384Z,17.90
2018-03-04T19:30:35.045Z,18.03
2018-03-04T19:33:02.683Z,18.73
2018-03-04T19:35:30.333Z,17.80
2018-03-04T19:37:58.904Z,18.70
2018-03-04T19:40:26.787Z,19.00
2018-03-04T19:42:55.517Z,19.43
2018-03-04T19:45:23.474Z,17.80
2018-03-04T19:47:51.725Z,18.47
2018-03-04T19:50:20.440Z,17.57
2018-03-04T19:52:48.397Z,18.30
2018-03-04T19:55:16.074Z,17.13
2018-03-04T19:57:43.608Z,17.27
2018-03-04T20:00:12.300Z,16.80
2018-03-04T20:02:40.692Z,16.47
2018-03-04T20:05:10.067Z,16.60
2018-03-04T20:07:38.248Z,16.40
2018-03-04T20:10:05.999Z,17.33
2018-03-04T20:12:33.771Z,16.80
2018-03-04T20:15:01.794Z,16.77
2018-03-04T20:17:29.697Z,16.90
2018-03-04T20:19:57.853Z,16.80
2018-03-04T20:22:25.881Z,16.47
2018-03-04T20:24:54.628Z,16.60
2018-03-04T20:27:22.303Z,17.03
2018-03-04T20:29:50.281Z,16.80
2018-03-04T20:32:18.150Z,16.73
2018-03-04T20:34:46.945Z,16.17
2018-03-04T20:37:15.485Z,15.47
2018-03-04T20:39:43.086Z,15.90
2018-03-04T20:42:12.615Z,16.23
2018-03-04T20:44:40.590Z,16.10
2018-03-04T20:47:08.339Z,15.10
2018-03-04T20:49:36.617Z,15.40
2018-03-04T20:52:04.291Z,14.63
2018-03-04T20:54:33.410Z,14.77
2018-03-04T20:57:01.148Z,13.93
2018-03-04T20:59:29.701Z,13.17
2018-03-04T21:01:57.716Z,12.93
2018-03-04T21:04:25.736Z,12.10
2018-03-04T21:06:53.794Z,11.20
2018-03-04T21:09:21.781Z,10.50
2018-03-04T21:11:49.885Z,9.33
2018-03-04T21:14:18.328Z,9.87
2018-03-04T21:16:46.112Z,9.50
2018-03-04T21:19:13.690Z,8.30
2018-03-04T21:21:41.495Z,8.20
2018-03-04T21:24:09.232Z,7.93
2018-03-04T21:26:37.176Z,7.50
2018-03-04T21:29:05.080Z,6.83
2018-03-04T21:31:33.185Z,8.00
2018-03-04T21:34:01.117Z,7.40
2018-03-04T21:36:29.118Z,7.10
2018-03-04T21:38:57.175Z,7.30
2018-03-04T21:41:24.995Z,6.87
2018-03-04T21:43:53.126Z,7.13
2018-03-04T21:46:20.958Z,6.57
2018-03-04T21:48:49.862Z,6.57
2018-03-04T21:51:17.659Z,6.87
2018-03-04T21:53:45.518Z,6.73
2018-03-04T21:56:13.544Z,6.40
2018-03-04T21:58:41.316Z,5.37
2018-03-04T22:01:09.780Z,6.40
2018-03-04T22:03:37.536Z,6.30
2018-03-04T22:06:05.734Z,5.93
2018-03-04T22:08:33.758Z,5.37
2018-03-04T22:11:02.057Z,5.20
2018-03-04T22:13:29.609Z,5.70
2018-03-04T22:15:57.550Z,5.60
2018-03-04T22:18:25.617Z,5.10
2018-03-04T22:20:54.419Z,4.87
2018-03-04T22:23:22.430Z,5.13
2018-03-04T22:25:50.060Z,5.30
2018-03-04T22:28:17.957Z,4.57
2018-03-04T22:30:45.490Z,4.87
2018-03-04T22:33:13.090Z,4.47
2018-03-04T22:35:40.747Z,4.90
2018-03-04T22:38:08.246Z,5.00
2018-03-04T22:40:36.965Z,5.10
2018-03-04T22:43:04.527Z,5.30
2018-03-04T22:45:32.074Z,4.87
2018-03-04T22:47:59.688Z,5.57
2018-03-04T22:50:27.218Z,5.30
2018-03-04T22:52:54.857Z,5.70
2018-03-04T22:55:22.354Z,5.77
2018-03-04T22:57:49.890Z,5.50
2018-03-04T23:00:18.153Z,6.07
2018-03-04T23:02:45.674Z,5.63
2018-03-04T23:05:13.232Z,5.20
2018-03-04T23:07:40.751Z,6.40
2018-03-04T23:10:08.272Z,5.90
2018-03-04T23:12:35.876Z,6.57
2018-03-04T23:15:03.434Z,6.83
2018-03-04T23:17:31.020Z,6.27
2018-03-04T23:19:58.528Z,7.43
2018-03-04T23:22:26.861Z,8.30
2018-03-04T23:24:54.395Z,8.77
2018-03-04T23:27:21.897Z,9.03
2018-03-04T23:29:49.433Z,9.40
2018-03-04T23:32:17.012Z,10.27
2018-03-04T23:34:44.566Z,10.70
2018-03-04T23:37:12.103Z,10.60
2018-03-04T23:39:39.639Z,10.03
2018-03-04T23:42:07.200Z,9.53
2018-03-04T23:44:35.561Z,11.73
2018-03-04T23:47:03.832Z,11.33
2018-03-04T23:49:32.230Z,11.30
2018-03-04T23:51:59.760Z,11.20
2018-03-04T23:54:27.328Z,12.40
2018-03-04T23:56:54.842Z,12.90
2018-03-04T23:59:22.360Z,11.97
